Terminal Aerodrome Forecast
Issued by NWS

Home | Current Version | Previous Version | Text Only | Print | Product List | Glossary On
Versions: 1 2 3 4 5 6 7 8 9 10 11 12 13 14 15 16 17 18 19 20 21 22 23 24 25 26 27 28 29 30 31 32 33 34 35 36 37 38 39 40 41 42 43 44 45 46 47 48 49 50
000
FTUS43 KLOT 271138
TAFGYY
TAF
KGYY 271138Z 2712/2812 26005KT 5SM -DZ BR OVC007
     FM271400 VRB04KT 3SM BR OVC006
     FM271700 04008KT P6SM SCT008 OVC010
      TEMPO 2721/2724 5SM -SHRA BR OVC007
     FM280100 03011KT 6SM BR FEW007 BKN015=

USA.gov is the U.S. government's official web portal to all federal, state and local government web resources and services.